createdAt,value
2022-08-18T00:05:10.227Z,5.43
2022-08-18T00:08:58.625Z,6.68
2022-08-18T00:12:43.282Z,6.15
2022-08-18T00:16:25.781Z,6.63
2022-08-18T00:20:13.647Z,6.55
2022-08-18T00:23:55.992Z,6.72
2022-08-18T00:27:39.792Z,6.07
2022-08-18T00:31:22.556Z,6.47
2022-08-18T00:35:13.635Z,7.88
2022-08-18T00:38:56.239Z,6.35
2022-08-18T00:42:45.123Z,7.05
2022-08-18T00:46:31.750Z,5.53
2022-08-18T00:50:19.583Z,6.55
2022-08-18T00:54:06.909Z,9.45
2022-08-18T00:57:53.599Z,7.45
2022-08-18T01:01:37.910Z,8.32
2022-08-18T01:05:28.307Z,8.27
2022-08-18T01:09:11.554Z,7.30
2022-08-18T01:16:57.653Z,7.25
2022-08-18T01:21:00.153Z,8.90
2022-08-18T01:25:02.111Z,8.70
2022-08-18T01:28:46.504Z,8.88
2022-08-18T01:32:29.196Z,8.77
2022-08-18T01:36:14.406Z,9.43
2022-08-18T01:41:21.150Z,7.57
2022-08-18T01:44:02.413Z,7.80
2022-08-18T01:47:47.954Z,9.85
2022-08-18T01:51:39.921Z,8.10
2022-08-18T01:55:26.609Z,8.03
2022-08-18T01:59:14.757Z,8.75
2022-08-18T02:03:02.628Z,6.90
2022-08-18T02:06:46.519Z,9.27
2022-08-18T02:10:32.243Z,10.38
2022-08-18T02:14:14.846Z,8.35
2022-08-18T02:17:57.625Z,8.20
2022-08-18T02:21:40.518Z,5.97
2022-08-18T02:25:23.130Z,8.07
2022-08-18T02:29:07.602Z,7.97
2022-08-18T02:32:50.546Z,6.97
2022-08-18T02:36:32.918Z,7.72
2022-08-18T02:40:16.410Z,7.53
2022-08-18T02:44:00.013Z,9.45
2022-08-18T02:47:45.044Z,8.38
2022-08-18T02:51:27.740Z,10.07
2022-08-18T02:55:11.494Z,7.00
2022-08-18T02:58:57.603Z,8.07
2022-08-18T03:02:40.203Z,8.55
2022-08-18T03:06:27.863Z,7.55
2022-08-18T03:10:31.630Z,8.70
2022-08-18T03:14:14.656Z,7.80
2022-08-18T03:17:58.065Z,8.15
2022-08-18T03:21:42.013Z,8.85
2022-08-18T03:25:27.879Z,6.57
2022-08-18T03:29:11.869Z,8.95
2022-08-18T03:32:54.520Z,6.55
2022-08-18T03:36:38.086Z,7.20
2022-08-18T03:44:04.477Z,12.27
2022-08-18T03:47:47.229Z,6.45
2022-08-18T03:51:32.992Z,7.85
2022-08-18T03:55:15.893Z,8.52
2022-08-18T03:59:01.488Z,9.88
2022-08-18T04:02:43.956Z,7.82
2022-08-18T04:06:30.686Z,9.93
2022-08-18T04:10:19.145Z,7.65
2022-08-18T04:14:03.979Z,8.02
2022-08-18T04:18:03.038Z,7.47
2022-08-18T04:21:47.112Z,8.30
2022-08-18T04:25:32.858Z,7.40
2022-08-18T04:29:22.357Z,7.75
2022-08-18T04:33:06.329Z,8.65
2022-08-18T04:36:54.167Z,11.02
2022-08-18T04:40:38.274Z,7.80
2022-08-18T04:44:22.856Z,9.63
2022-08-18T04:48:05.765Z,7.35
2022-08-18T04:52:36.225Z,7.30
2022-08-18T04:56:25.826Z,14.32
2022-08-18T05:00:11.923Z,8.05
2022-08-18T05:03:55.628Z,10.48
2022-08-18T05:07:38.364Z,8.80
2022-08-18T05:11:22.298Z,10.48
2022-08-18T05:15:06.440Z,6.35
2022-08-18T05:18:50.289Z,6.00
2022-08-18T05:22:39.090Z,6.90
2022-08-18T05:26:21.653Z,5.40
2022-08-18T05:30:05.746Z,9.70
2022-08-18T05:33:51.049Z,5.32
2022-08-18T05:37:41.063Z,6.15
2022-08-18T05:41:30.352Z,4.88
2022-08-18T05:45:15.630Z,7.35
2022-08-18T05:48:59.754Z,5.97
2022-08-18T05:52:47.334Z,6.50
2022-08-18T05:56:46.585Z,6.40
2022-08-18T06:00:30.849Z,6.63
2022-08-18T06:04:26.929Z,4.68
2022-08-18T06:08:13.182Z,5.13
2022-08-18T06:12:04.972Z,6.63
2022-08-18T06:15:53.258Z,11.00
2022-08-18T06:19:49.424Z,8.68
2022-08-18T06:23:37.256Z,7.60
2022-08-18T06:27:32.220Z,5.50
2022-08-18T06:31:20.153Z,7.72
2022-08-18T06:35:18.136Z,5.55
2022-08-18T06:39:06.554Z,6.07
2022-08-18T06:42:49.405Z,6.35
2022-08-18T06:46:42.083Z,8.10
2022-08-18T06:50:31.382Z,7.10
2022-08-18T06:54:28.754Z,8.50
2022-08-18T06:58:26.177Z,7.25
2022-08-18T07:02:21.033Z,7.80
2022-08-18T07:06:08.245Z,8.70
2022-08-18T07:09:51.031Z,9.27
2022-08-18T07:13:40.378Z,7.18
2022-08-18T07:17:42.543Z,9.98
2022-08-18T07:21:30.816Z,6.90
2022-08-18T07:25:24.419Z,8.18
2022-08-18T07:29:14.926Z,7.78
2022-08-18T07:33:03.423Z,13.57
2022-08-18T07:36:51.317Z,8.55
2022-08-18T07:40:42.817Z,11.57
2022-08-18T07:44:43.602Z,10.52
2022-08-18T07:48:38.608Z,11.85
2022-08-18T07:52:44.317Z,12.25
2022-08-18T07:56:38.832Z,16.30
2022-08-18T08:04:46.097Z,12.98
2022-08-18T08:08:40.713Z,10.27
2022-08-18T08:12:31.081Z,14.90
2022-08-18T08:16:21.044Z,11.70
2022-08-18T08:20:18.161Z,10.65
2022-08-18T08:24:13.303Z,14.10
2022-08-18T08:28:09.265Z,14.00
2022-08-18T08:31:59.357Z,10.95
2022-08-18T08:35:50.881Z,11.50
2022-08-18T08:39:41.873Z,10.68
2022-08-18T08:43:28.142Z,10.07
2022-08-18T08:47:17.513Z,10.82
2022-08-18T08:51:25.138Z,11.63
2022-08-18T08:55:18.259Z,12.77
2022-08-18T08:59:05.828Z,11.02
2022-08-18T09:03:07.720Z,13.07
2022-08-18T09:06:59.484Z,13.73
2022-08-18T09:11:05.587Z,10.32
2022-08-18T09:15:34.114Z,11.70
2022-08-18T09:19:45.051Z,16.30
2022-08-18T09:23:32.719Z,14.70
2022-08-18T09:27:43.599Z,12.48
2022-08-18T09:31:34.928Z,13.43
2022-08-18T09:35:35.822Z,11.52
2022-08-18T09:39:54.309Z,13.20
2022-08-18T09:52:58.922Z,14.38
2022-08-18T09:57:16.604Z,12.40
2022-08-18T10:01:22.351Z,16.73
2022-08-18T10:05:28.239Z,14.60
2022-08-18T10:09:36.862Z,12.30
2022-08-18T10:13:26.673Z,12.43
2022-08-18T10:17:27.611Z,16.00
2022-08-18T10:21:17.571Z,15.85
2022-08-18T10:29:08.650Z,15.75
2022-08-18T10:32:54.335Z,15.32
2022-08-18T10:36:43.041Z,19.92
2022-08-18T10:40:26.646Z,13.70
2022-08-18T10:44:28.881Z,14.98
2022-08-18T10:48:24.311Z,18.35
2022-08-18T10:52:41.665Z,16.90
2022-08-18T10:56:34.908Z,22.48
2022-08-18T11:00:21.442Z,15.35
2022-08-18T11:04:23.018Z,19.27
2022-08-18T11:08:21.925Z,18.25
2022-08-18T11:12:05.944Z,16.45
2022-08-18T11:16:01.538Z,19.02
2022-08-18T11:19:47.209Z,21.75
2022-08-18T11:23:33.302Z,15.55
2022-08-18T11:27:20.607Z,16.45
2022-08-18T11:31:06.538Z,12.45
2022-08-18T11:34:53.699Z,16.67
2022-08-18T11:38:39.336Z,18.50
2022-08-18T11:42:30.379Z,12.77
2022-08-18T11:46:16.506Z,12.30
2022-08-18T11:50:10.038Z,14.60
2022-08-18T11:53:58.966Z,14.57
2022-08-18T11:57:51.503Z,9.48
2022-08-18T12:01:41.920Z,9.50
2022-08-18T12:05:26.265Z,11.95
2022-08-18T12:09:37.003Z,9.25
2022-08-18T12:13:25.121Z,11.32
2022-08-18T12:17:10.432Z,10.45
2022-08-18T12:20:55.274Z,12.18
2022-08-18T12:24:39.202Z,11.60
2022-08-18T12:28:22.758Z,10.57
2022-08-18T12:32:18.034Z,12.15
2022-08-18T12:36:18.846Z,9.88
2022-08-18T12:40:02.231Z,14.00
2022-08-18T12:43:44.994Z,10.18
2022-08-18T12:47:42.977Z,7.38
2022-08-18T12:55:32.617Z,11.38
2022-08-18T12:59:15.172Z,8.80
2022-08-18T13:03:00.385Z,9.07
2022-08-18T13:06:59.905Z,8.95
2022-08-18T13:10:46.682Z,9.50
2022-08-18T13:14:29.615Z,11.68
2022-08-18T13:18:14.562Z,12.63
2022-08-18T13:21:58.891Z,14.40
2022-08-18T13:25:41.878Z,10.93
2022-08-18T13:29:29.317Z,8.52
2022-08-18T13:37:15.562Z,11.23
2022-08-18T13:41:00.247Z,8.73
2022-08-18T13:44:42.830Z,13.32
2022-08-18T13:48:36.486Z,11.63
2022-08-18T13:52:33.453Z,9.82
2022-08-18T13:56:18.037Z,8.63
2022-08-18T14:00:04.446Z,9.25
2022-08-18T14:03:48.071Z,12.73
2022-08-18T14:07:35.274Z,8.30
2022-08-18T14:11:18.866Z,13.25
2022-08-18T14:15:01.654Z,13.15
2022-08-18T14:18:45.765Z,12.52
2022-08-18T14:22:45.891Z,11.18
2022-08-18T14:26:50.171Z,12.27
2022-08-18T14:30:33.526Z,13.27
2022-08-18T14:34:21.765Z,8.88
2022-08-18T14:38:10.522Z,10.80
2022-08-18T14:41:56.959Z,8.82
2022-08-18T14:45:39.397Z,7.72
2022-08-18T14:49:28.369Z,7.55
2022-08-18T14:53:13.679Z,6.03
2022-08-18T14:56:59.827Z,8.00
2022-08-18T15:00:53.285Z,10.40
2022-08-18T15:04:38.415Z,8.75
2022-08-18T15:08:35.876Z,11.65
2022-08-18T15:12:20.476Z,7.32
2022-08-18T15:16:03.256Z,10.77
2022-08-18T15:24:03.351Z,11.20
2022-08-18T15:31:51.035Z,9.82
2022-08-18T15:35:34.473Z,7.20
2022-08-18T15:39:21.590Z,8.40
2022-08-18T15:43:10.571Z,8.57
2022-08-18T15:46:53.618Z,7.78
2022-08-18T15:50:39.117Z,9.35
2022-08-18T15:54:21.654Z,7.43
2022-08-18T15:58:10.839Z,11.25
2022-08-18T16:01:56.188Z,9.60
2022-08-18T16:05:41.666Z,12.73
2022-08-18T16:09:24.514Z,8.35
2022-08-18T16:13:08.576Z,12.07
2022-08-18T16:16:50.993Z,7.13
2022-08-18T16:20:35.604Z,6.78
2022-08-18T16:24:18.436Z,7.32
2022-08-18T16:31:44.629Z,7.32
2022-08-18T16:35:27.316Z,11.38
2022-08-18T16:39:11.393Z,8.35
2022-08-18T16:42:56.249Z,13.85
2022-08-18T16:46:38.673Z,10.65
2022-08-18T16:50:22.875Z,18.52
2022-08-18T16:54:05.907Z,15.27
2022-08-18T16:58:21.083Z,16.25
2022-08-18T17:02:38.619Z,20.58
2022-08-18T17:06:21.304Z,18.35
2022-08-18T17:13:51.248Z,16.38
2022-08-18T17:17:35.421Z,18.75
2022-08-18T17:21:20.268Z,22.83
2022-08-18T17:25:04.127Z,21.25
2022-08-18T17:28:53.342Z,27.42
2022-08-18T17:32:44.013Z,21.40
2022-08-18T17:36:34.697Z,21.75
2022-08-18T17:40:22.182Z,23.85
2022-08-18T17:44:06.914Z,22.10
2022-08-18T17:47:58.090Z,31.27
2022-08-18T17:51:46.544Z,24.83
2022-08-18T17:55:37.948Z,20.05
2022-08-18T17:59:50.979Z,16.88
2022-08-18T18:03:30.241Z,18.92
2022-08-18T18:07:25.792Z,16.42
2022-08-18T18:11:12.707Z,19.35
2022-08-18T18:14:57.880Z,15.30
2022-08-18T18:18:42.743Z,14.30
2022-08-18T18:22:28.785Z,14.18
2022-08-18T18:26:25.976Z,13.88
2022-08-18T18:30:27.806Z,13.85
2022-08-18T18:34:23.351Z,14.32
2022-08-18T18:38:28.252Z,16.02
2022-08-18T18:42:17.945Z,13.18
2022-08-18T18:46:30.989Z,14.05
2022-08-18T18:50:25.285Z,16.27
2022-08-18T18:54:18.836Z,15.40
2022-08-18T18:58:13.529Z,13.18
2022-08-18T19:02:04.726Z,17.00
2022-08-18T19:06:13.831Z,18.63
2022-08-18T19:10:03.914Z,14.45
2022-08-18T19:13:54.554Z,15.32
2022-08-18T19:17:42.445Z,13.48
2022-08-18T19:22:03.643Z,15.60
2022-08-18T19:25:34.575Z,15.60
2022-08-18T19:29:22.987Z,14.05
2022-08-18T19:33:10.048Z,15.68
2022-08-18T19:36:58.861Z,20.30
2022-08-18T19:40:50.467Z,14.43
2022-08-18T19:44:50.884Z,15.73
2022-08-18T19:48:53.388Z,15.18
2022-08-18T19:52:52.726Z,16.90
2022-08-18T19:56:55.312Z,15.90
2022-08-18T20:00:47.121Z,16.88
2022-08-18T20:04:46.744Z,16.98
2022-08-18T20:09:02.059Z,15.85
2022-08-18T20:13:05.906Z,14.50
2022-08-18T20:17:14.037Z,19.60
2022-08-18T20:21:41.699Z,15.38
2022-08-18T20:25:42.642Z,19.88
2022-08-18T20:29:42.682Z,15.75
2022-08-18T20:33:32.705Z,17.48
2022-08-18T20:37:25.463Z,15.70
2022-08-18T20:41:44.475Z,23.52
2022-08-18T20:45:30.111Z,17.85
2022-08-18T20:49:24.517Z,24.70
2022-08-18T20:53:19.477Z,22.17
2022-08-18T20:57:10.359Z,19.40
2022-08-18T21:00:56.860Z,21.95
2022-08-18T21:04:48.384Z,19.10
2022-08-18T21:08:33.402Z,25.98
2022-08-18T21:12:23.986Z,19.30
2022-08-18T21:16:06.937Z,17.73
2022-08-18T21:19:50.215Z,22.40
2022-08-18T21:23:35.822Z,21.40
2022-08-18T21:27:26.090Z,23.83
2022-08-18T21:31:42.635Z,17.50
2022-08-18T21:35:31.715Z,22.08
2022-08-18T21:39:17.562Z,18.45
2022-08-18T21:43:04.548Z,19.00
2022-08-18T21:46:48.324Z,17.55
2022-08-18T21:50:35.836Z,19.13
2022-08-18T21:54:22.576Z,17.73
2022-08-18T21:58:17.778Z,20.38
2022-08-18T22:02:00.769Z,17.75
2022-08-18T22:05:58.924Z,19.77
2022-08-18T22:10:16.626Z,18.33
2022-08-18T22:14:14.008Z,16.80
2022-08-18T22:18:00.307Z,22.98
2022-08-18T22:21:46.540Z,18.85
2022-08-18T22:25:28.227Z,18.80
2022-08-18T22:29:22.403Z,17.63
2022-08-18T22:33:04.920Z,21.58
2022-08-18T22:52:58.369Z,19.05
2022-08-18T22:56:56.367Z,19.67
2022-08-18T23:00:39.894Z,24.00
2022-08-18T23:04:25.850Z,21.38
2022-08-18T23:08:09.834Z,24.35
2022-08-18T23:11:53.958Z,26.50
2022-08-18T23:15:43.683Z,25.52
2022-08-18T23:19:27.496Z,23.23
2022-08-18T23:23:11.507Z,25.27
2022-08-18T23:26:54.608Z,35.47
2022-08-18T23:30:38.323Z,24.65
2022-08-18T23:34:23.879Z,24.23
2022-08-18T23:38:09.229Z,24.38
2022-08-18T23:41:53.961Z,23.40
2022-08-18T23:45:39.680Z,23.02
2022-08-18T23:49:23.241Z,26.20
2022-08-18T23:53:06.007Z,28.67
2022-08-18T23:56:49.300Z,27.83
